Terminal Aerodrome Forecast
Issued by NWS

Home | Current Version | Previous Version | Text Only | Print | Product List | Glossary On
Versions: 1 2 3 4 5 6 7 8 9 10 11 12 13 14 15 16 17 18 19 20 21 22 23 24 25 26 27 28
000
FTUS44 KHGX 210521
TAFIAH
TAF
KIAH 210521Z 2106/2212 11004KT P6SM SCT025 SCT060
     FM211600 17006KT P6SM VCSH SCT025 BKN050
     FM220300 02008KT P6SM VCSH BKN025
     FM220900 01011KT P6SM SCT025 BKN050=

USA.gov is the U.S. government's official web portal to all federal, state and local government web resources and services.